aviador You're here:

SCSE Decoded Metar

LA SERENA in CHILE
Report Time2017-08-21 13:00:00
UTC Time2017-08-21 14:01:27
Flight Rules mvfr MVFR
Wind320° at 07 kt
W.Decomp.*RWY 29: 6.1 kt HW 3.4 kt RCW
W.Rank320° ranks 12
Current wind is above 320° avg. (5.1)
Visibility5000 m
Phenomena:Vicinity Fog
Clouds:N/A
Expected CloudBase > 400 ft AGL from Temp-Dew spread
CeilingNone
Temp10°C (ISA -4)
Dew Point09°C (94% RH)
AAT7.3°C
QNH1013 hPa
Density Alt151 ft
Elevation479 ft
Report Wrong Elevation
Raw Report
METAR SCSE 211300Z 32007KT 5000 VCFG NSC 10/09 Q1013=

Extra information for SCSE:More info

Metar Taf Metar & Taf Last 4 Metars F.Rules Stats Wind Profile Meteogram Temp Stats Airport Information Weather charts Add Link Nearby VenuesMetar ALERT Operation Metar Decoded Social comments